createdAt,value
2023-04-28T00:00:27.726Z,1.80
2023-04-28T00:00:58.234Z,1.60
2023-04-28T00:01:28.890Z,1.70
2023-04-28T00:01:59.288Z,1.70
2023-04-28T00:02:30.225Z,1.90
2023-04-28T00:03:00.890Z,1.60
2023-04-28T00:03:31.583Z,1.80
2023-04-28T00:04:02.526Z,1.70
2023-04-28T00:04:33.289Z,1.80
2023-04-28T00:05:04.182Z,1.80
2023-04-28T00:05:34.618Z,2.10
2023-04-28T00:06:05.112Z,2.00
2023-04-28T00:06:36.082Z,2.00
2023-04-28T00:07:07.083Z,1.80
2023-04-28T00:07:38.051Z,1.80
2023-04-28T00:08:08.979Z,1.90
2023-04-28T00:08:39.855Z,1.90
2023-04-28T00:09:10.728Z,1.90
2023-04-28T00:09:41.586Z,1.70
2023-04-28T00:10:12.486Z,1.90
2023-04-28T00:10:43.382Z,1.80
2023-04-28T00:11:14.316Z,1.90
2023-04-28T00:11:45.249Z,1.80
2023-04-28T00:12:16.209Z,1.60
2023-04-28T00:12:47.153Z,1.80
2023-04-28T00:13:18.107Z,1.60
2023-04-28T00:13:49.028Z,1.90
2023-04-28T00:14:19.926Z,1.80
2023-04-28T00:14:50.844Z,2.00
2023-04-28T00:15:21.745Z,2.00
2023-04-28T00:15:52.661Z,2.20
2023-04-28T00:16:23.618Z,1.90
2023-04-28T00:16:54.661Z,1.90
2023-04-28T00:17:25.246Z,1.70
2023-04-28T00:17:55.929Z,2.10
2023-04-28T00:18:26.486Z,1.70
2023-04-28T00:18:56.941Z,1.80
2023-04-28T00:19:28.013Z,1.80
2023-04-28T00:19:58.433Z,2.10
2023-04-28T00:20:29.299Z,2.10
2023-04-28T00:21:00.188Z,1.90
2023-04-28T00:21:31.048Z,1.80
2023-04-28T00:22:01.923Z,2.10
2023-04-28T00:22:32.837Z,2.00
2023-04-28T00:23:04.048Z,2.10
2023-04-28T00:23:34.565Z,2.00
2023-04-28T00:24:05.483Z,1.90
2023-04-28T00:24:36.428Z,1.90
2023-04-28T00:25:07.428Z,1.90
2023-04-28T00:25:37.857Z,1.80
2023-04-28T00:26:08.815Z,1.90
2023-04-28T00:26:39.705Z,2.20
2023-04-28T00:27:10.580Z,1.80
2023-04-28T00:27:41.472Z,2.20
2023-04-28T00:28:16.117Z,2.00
2023-04-28T00:28:44.212Z,1.90
2023-04-28T00:29:14.295Z,2.10
2023-04-28T00:29:44.815Z,1.90
2023-04-28T00:30:15.284Z,2.30
2023-04-28T00:30:45.873Z,2.20
2023-04-28T00:31:16.908Z,2.10
2023-04-28T00:31:47.486Z,2.00
2023-04-28T00:32:18.454Z,1.90
2023-04-28T00:32:49.388Z,1.80
2023-04-28T00:33:20.283Z,1.80
2023-04-28T00:33:51.167Z,2.00
2023-04-28T00:34:22.157Z,2.20
2023-04-28T00:34:53.025Z,1.80
2023-04-28T00:35:23.890Z,1.90
2023-04-28T00:35:54.822Z,2.00
2023-04-28T00:36:25.821Z,1.90
2023-04-28T00:36:56.745Z,2.00
2023-04-28T00:37:27.751Z,1.80
2023-04-28T00:37:58.709Z,2.10
2023-04-28T00:38:29.608Z,1.90
2023-04-28T00:39:00.475Z,2.00
2023-04-28T00:39:31.361Z,2.10
2023-04-28T00:40:02.323Z,2.20
2023-04-28T00:40:33.186Z,2.00
2023-04-28T00:41:04.080Z,1.90
2023-04-28T00:41:35.066Z,2.00
2023-04-28T00:42:05.990Z,1.90
2023-04-28T00:42:36.920Z,1.80
2023-04-28T00:43:07.876Z,2.00
2023-04-28T00:43:38.825Z,2.10
2023-04-28T00:44:09.757Z,2.10
2023-04-28T00:44:40.622Z,2.10
2023-04-28T00:45:11.497Z,2.30
2023-04-28T00:45:42.386Z,2.10
2023-04-28T00:46:13.330Z,1.90
2023-04-28T00:46:43.817Z,2.20
2023-04-28T00:47:14.697Z,1.80
2023-04-28T00:47:45.735Z,2.10
2023-04-28T00:48:16.392Z,2.20
2023-04-28T00:48:46.911Z,2.30
2023-04-28T00:49:17.556Z,2.10
2023-04-28T00:49:48.049Z,2.20
2023-04-28T00:50:18.734Z,2.20
2023-04-28T00:50:49.216Z,2.30
2023-04-28T00:51:20.280Z,1.80
2023-04-28T00:51:50.651Z,2.50
2023-04-28T00:52:21.515Z,2.40
2023-04-28T00:52:52.424Z,2.10
2023-04-28T00:53:23.357Z,2.20
2023-04-28T00:53:54.234Z,2.20
2023-04-28T00:54:25.573Z,2.40
2023-04-28T00:54:56.087Z,2.10
2023-04-28T00:55:26.803Z,2.20
2023-04-28T00:55:57.267Z,2.30
2023-04-28T00:56:28.409Z,2.10
2023-04-28T00:56:58.907Z,2.40
2023-04-28T00:57:30.079Z,2.10
2023-04-28T00:58:00.487Z,2.50
2023-04-28T00:58:31.369Z,2.30
2023-04-28T00:59:02.253Z,2.20
2023-04-28T00:59:33.141Z,2.20
2023-04-28T01:00:04.008Z,2.30
2023-04-28T01:00:34.860Z,2.10
2023-04-28T01:01:05.841Z,2.40
2023-04-28T01:01:36.608Z,2.50
2023-04-28T01:02:07.217Z,2.40
2023-04-28T01:02:38.026Z,2.70
2023-04-28T01:03:08.418Z,2.30
2023-04-28T01:03:39.751Z,2.70
2023-04-28T01:04:10.206Z,2.30
2023-04-28T01:04:40.645Z,2.60
2023-04-28T01:05:11.072Z,2.40
2023-04-28T01:05:42.066Z,2.50
2023-04-28T01:06:12.428Z,2.60
2023-04-28T01:06:43.306Z,2.70
2023-04-28T01:07:14.170Z,2.60
2023-04-28T01:07:45.029Z,2.60
2023-04-28T01:08:16.148Z,2.80
2023-04-28T01:08:46.829Z,2.80
2023-04-28T01:09:17.343Z,2.80
2023-04-28T01:09:48.467Z,2.30
2023-04-28T01:10:18.960Z,2.60
2023-04-28T01:10:50.091Z,2.70
2023-04-28T01:11:20.635Z,2.50
2023-04-28T01:11:51.261Z,2.40
2023-04-28T01:12:21.661Z,2.80
2023-04-28T01:12:52.550Z,2.50
2023-04-28T01:13:23.425Z,2.90
2023-04-28T01:13:54.325Z,2.90
2023-04-28T01:14:25.209Z,2.60
2023-04-28T01:14:56.138Z,2.90
2023-04-28T01:15:27.073Z,2.90
2023-04-28T01:15:57.996Z,2.90
2023-04-28T01:16:29.002Z,3.00
2023-04-28T01:16:59.494Z,3.00
2023-04-28T01:17:30.015Z,2.80
2023-04-28T01:18:00.541Z,2.70
2023-04-28T01:18:31.316Z,3.00
2023-04-28T01:19:02.184Z,3.00
2023-04-28T01:19:33.058Z,2.70
2023-04-28T01:20:03.931Z,3.00
2023-04-28T01:20:34.802Z,3.30
2023-04-28T01:21:05.692Z,3.10
2023-04-28T01:21:36.561Z,3.40
2023-04-28T01:22:07.499Z,3.30
2023-04-28T01:22:38.571Z,2.70
2023-04-28T01:23:09.366Z,2.40
2023-04-28T01:23:40.309Z,2.80
2023-04-28T01:24:11.248Z,3.00
2023-04-28T01:24:42.110Z,3.20
2023-04-28T01:25:12.982Z,2.80
2023-04-28T01:25:43.923Z,3.20
2023-04-28T01:26:14.806Z,3.20
2023-04-28T01:26:45.682Z,2.80
2023-04-28T01:27:16.553Z,3.10
2023-04-28T01:27:47.705Z,3.30
2023-04-28T01:28:18.206Z,3.10
2023-04-28T01:28:49.354Z,3.00
2023-04-28T01:29:19.870Z,3.30
2023-04-28T01:29:50.502Z,2.90
2023-04-28T01:30:20.992Z,3.30
2023-04-28T01:30:52.122Z,3.00
2023-04-28T01:31:22.551Z,3.20
2023-04-28T01:31:53.536Z,3.30
2023-04-28T01:32:24.005Z,3.00
2023-04-28T01:32:54.982Z,3.50
2023-04-28T01:33:25.396Z,3.10
2023-04-28T01:33:56.291Z,3.10
2023-04-28T01:34:27.300Z,2.70
2023-04-28T01:34:57.918Z,3.00
2023-04-28T01:35:28.420Z,2.50
2023-04-28T01:35:59.136Z,2.50
2023-04-28T01:36:29.632Z,2.30
2023-04-28T01:37:00.759Z,2.30
2023-04-28T01:37:31.266Z,2.70
2023-04-28T01:38:02.408Z,2.70
2023-04-28T01:38:32.788Z,3.10
2023-04-28T01:39:03.646Z,2.70
2023-04-28T01:39:34.532Z,2.70
2023-04-28T01:40:05.409Z,3.20
2023-04-28T01:40:36.298Z,3.00
2023-04-28T01:41:07.174Z,2.50
2023-04-28T01:41:38.163Z,2.60
2023-04-28T01:42:08.670Z,2.50
2023-04-28T01:42:39.600Z,2.70
2023-04-28T01:43:10.632Z,3.00
2023-04-28T01:43:41.095Z,3.10
2023-04-28T01:44:12.065Z,2.80
2023-04-28T01:44:42.939Z,2.90
2023-04-28T01:45:13.809Z,3.10
2023-04-28T01:45:44.694Z,2.90
2023-04-28T01:46:15.598Z,3.20
2023-04-28T01:46:46.556Z,2.70
2023-04-28T01:47:17.457Z,3.00
2023-04-28T01:47:48.529Z,2.90
2023-04-28T01:48:19.031Z,2.90
2023-04-28T01:48:50.038Z,2.70
2023-04-28T01:49:20.479Z,2.60
2023-04-28T01:49:51.440Z,2.60
2023-04-28T01:50:22.385Z,2.40
2023-04-28T01:50:53.264Z,2.70
2023-04-28T01:51:24.134Z,2.60
2023-04-28T01:51:55.011Z,2.90
2023-04-28T01:52:25.880Z,2.20
2023-04-28T01:52:56.797Z,2.70
2023-04-28T01:53:27.737Z,2.80
2023-04-28T01:53:58.676Z,2.80
2023-04-28T01:54:29.660Z,2.60
2023-04-28T01:55:00.638Z,2.70
2023-04-28T01:55:31.134Z,2.50
2023-04-28T01:56:02.112Z,2.80
2023-04-28T01:56:33.041Z,2.60
2023-04-28T01:57:03.902Z,2.70
2023-04-28T01:57:34.418Z,2.70
2023-04-28T01:58:05.335Z,2.80
2023-04-28T01:58:36.211Z,2.70
2023-04-28T01:59:07.072Z,2.80
2023-04-28T01:59:37.967Z,2.90
2023-04-28T02:00:09.083Z,2.80
2023-04-28T02:00:39.601Z,2.60
2023-04-28T02:01:10.283Z,2.90
2023-04-28T02:01:40.921Z,2.60
2023-04-28T02:02:11.679Z,2.70
2023-04-28T02:02:42.450Z,3.10
2023-04-28T02:03:13.427Z,2.70
2023-04-28T02:03:43.682Z,3.10
2023-04-28T02:04:14.453Z,2.80
2023-04-28T02:04:45.038Z,2.60
2023-04-28T02:05:15.932Z,2.70
2023-04-28T02:05:46.813Z,2.90
2023-04-28T02:06:17.692Z,2.60
2023-04-28T02:06:48.905Z,3.30
2023-04-28T02:07:19.575Z,2.60
2023-04-28T02:07:50.049Z,2.20
2023-04-28T02:08:21.248Z,2.80
2023-04-28T02:08:51.740Z,3.00
2023-04-28T02:09:22.863Z,2.80
2023-04-28T02:09:53.360Z,2.60
2023-04-28T02:10:24.316Z,2.70
2023-04-28T02:10:55.197Z,2.80
2023-04-28T02:11:26.070Z,3.10
2023-04-28T02:11:56.933Z,3.20
2023-04-28T02:12:27.816Z,3.10
2023-04-28T02:12:58.691Z,3.30
2023-04-28T02:13:29.710Z,3.20
2023-04-28T02:14:00.210Z,3.10
2023-04-28T02:14:31.187Z,3.10
2023-04-28T02:15:02.122Z,3.00
2023-04-28T02:15:33.052Z,3.30
2023-04-28T02:16:04.093Z,2.90
2023-04-28T02:16:34.557Z,3.40
2023-04-28T02:17:05.477Z,3.20
2023-04-28T02:17:36.485Z,2.80
2023-04-28T02:18:07.445Z,3.30
2023-04-28T02:18:38.369Z,3.40
2023-04-28T02:19:09.543Z,3.10
2023-04-28T02:19:40.031Z,2.90
2023-04-28T02:20:10.952Z,2.90
2023-04-28T02:20:41.897Z,3.10
2023-04-28T02:21:12.824Z,2.90
2023-04-28T02:21:43.967Z,3.10
2023-04-28T02:22:14.452Z,2.90
2023-04-28T02:22:45.336Z,2.90
2023-04-28T02:23:16.208Z,3.20
2023-04-28T02:23:47.108Z,2.90
2023-04-28T02:24:18.337Z,3.30
2023-04-28T02:24:48.894Z,3.30
2023-04-28T02:25:19.833Z,2.80
2023-04-28T02:25:50.874Z,3.10
2023-04-28T02:26:21.315Z,3.30
2023-04-28T02:26:52.324Z,2.70
2023-04-28T02:27:23.240Z,3.40
2023-04-28T02:27:54.202Z,2.80
2023-04-28T02:28:25.078Z,2.70
2023-04-28T02:28:55.963Z,2.80
2023-04-28T02:29:26.822Z,2.70
2023-04-28T02:29:57.701Z,2.90
2023-04-28T02:30:28.568Z,3.00
2023-04-28T02:30:59.467Z,2.70
2023-04-28T02:31:30.651Z,3.00
2023-04-28T02:32:01.226Z,2.60
2023-04-28T02:32:32.216Z,3.10
2023-04-28T02:33:02.281Z,2.60
2023-04-28T02:33:33.308Z,2.60
2023-04-28T02:34:03.825Z,2.70
2023-04-28T02:34:34.537Z,2.60
2023-04-28T02:35:05.055Z,2.70
2023-04-28T02:35:35.926Z,2.90
2023-04-28T02:36:06.814Z,2.50
2023-04-28T02:36:37.693Z,2.40
2023-04-28T02:37:08.560Z,2.60
2023-04-28T02:37:39.460Z,2.60
2023-04-28T02:38:10.462Z,2.60
2023-04-28T02:38:41.112Z,2.80
2023-04-28T02:39:11.614Z,3.10
2023-04-28T02:39:42.741Z,3.00
2023-04-28T02:40:13.264Z,2.70
2023-04-28T02:40:43.898Z,2.80
2023-04-28T02:41:14.427Z,3.00
2023-04-28T02:41:45.099Z,2.90
2023-04-28T02:42:15.503Z,2.70
2023-04-28T02:42:46.391Z,2.90
2023-04-28T02:43:17.265Z,2.60
2023-04-28T02:43:48.136Z,2.90
2023-04-28T02:44:19.034Z,3.00
2023-04-28T02:44:49.908Z,2.90
2023-04-28T02:45:20.964Z,3.30
2023-04-28T02:45:51.700Z,3.20
2023-04-28T02:46:22.291Z,2.90
2023-04-28T02:46:53.336Z,2.70
2023-04-28T02:47:23.835Z,3.10
2023-04-28T02:47:55.126Z,2.90
2023-04-28T02:48:25.671Z,2.90
2023-04-28T02:48:56.110Z,2.90
2023-04-28T02:49:26.970Z,2.70
2023-04-28T02:49:57.831Z,2.90
2023-04-28T02:50:28.688Z,2.90
2023-04-28T02:50:59.564Z,2.60
2023-04-28T02:51:30.434Z,2.70
2023-04-28T02:52:01.432Z,2.90
2023-04-28T02:52:32.396Z,3.00
2023-04-28T02:53:03.397Z,2.70
2023-04-28T02:53:33.827Z,2.80
2023-04-28T02:54:04.769Z,3.00
2023-04-28T02:54:35.708Z,2.40
2023-04-28T02:55:06.578Z,2.80
2023-04-28T02:55:37.461Z,2.60
2023-04-28T02:56:08.345Z,2.70
2023-04-28T02:56:39.256Z,2.90
2023-04-28T02:57:10.157Z,2.90
2023-04-28T02:57:41.027Z,2.90
2023-04-28T02:58:11.942Z,2.70
2023-04-28T02:58:42.862Z,2.60
2023-04-28T02:59:13.874Z,2.50
2023-04-28T02:59:44.346Z,2.40
2023-04-28T03:00:14.894Z,3.10
2023-04-28T03:00:45.380Z,2.60
2023-04-28T03:01:16.329Z,2.50
2023-04-28T03:01:46.873Z,3.10
2023-04-28T03:02:17.906Z,2.60
2023-04-28T03:02:48.432Z,2.80
2023-04-28T03:03:19.140Z,2.80
2023-04-28T03:03:49.812Z,2.60
2023-04-28T03:04:20.712Z,2.50
2023-04-28T03:04:50.937Z,2.70
2023-04-28T03:05:21.946Z,2.90
2023-04-28T03:05:53.073Z,2.90
2023-04-28T03:06:23.594Z,3.10
2023-04-28T03:06:54.251Z,2.70
2023-04-28T03:07:24.748Z,2.80
2023-04-28T03:07:55.921Z,2.40
2023-04-28T03:08:26.352Z,2.70
2023-04-28T03:08:57.223Z,2.50
2023-04-28T03:09:28.107Z,2.70
2023-04-28T03:09:58.978Z,2.70
2023-04-28T03:10:29.876Z,2.60
2023-04-28T03:11:00.790Z,2.50
2023-04-28T03:11:31.646Z,2.40
2023-04-28T03:12:02.620Z,2.40
2023-04-28T03:12:33.186Z,2.40
2023-04-28T03:13:03.667Z,2.50
2023-04-28T03:13:34.677Z,2.40
2023-04-28T03:14:05.637Z,2.70
2023-04-28T03:14:36.661Z,2.40
2023-04-28T03:15:07.130Z,2.40
2023-04-28T03:15:38.004Z,2.00
2023-04-28T03:16:08.908Z,2.60
2023-04-28T03:16:39.868Z,2.30
2023-04-28T03:17:10.763Z,2.20
2023-04-28T03:17:41.688Z,2.50
2023-04-28T03:18:12.755Z,2.60
2023-04-28T03:18:43.205Z,2.30
2023-04-28T03:19:14.200Z,2.10
2023-04-28T03:19:45.223Z,2.20
2023-04-28T03:20:15.698Z,2.10
2023-04-28T03:20:46.661Z,2.20
2023-04-28T03:21:17.539Z,2.40
2023-04-28T03:21:48.402Z,2.30
2023-04-28T03:22:19.266Z,2.50
2023-04-28T03:22:50.176Z,2.30
2023-04-28T03:23:21.075Z,2.30
2023-04-28T03:23:51.940Z,2.10
2023-04-28T03:24:22.922Z,2.30
2023-04-28T03:24:53.879Z,2.40
2023-04-28T03:25:24.845Z,2.50
2023-04-28T03:25:55.790Z,2.40
2023-04-28T03:26:26.801Z,2.30
2023-04-28T03:26:57.237Z,2.50
2023-04-28T03:27:28.137Z,2.20
2023-04-28T03:27:59.033Z,2.60
2023-04-28T03:28:29.900Z,2.20
2023-04-28T03:29:00.768Z,2.60
2023-04-28T03:29:31.631Z,2.40
2023-04-28T03:30:02.511Z,2.60
2023-04-28T03:30:33.489Z,2.20
2023-04-28T03:31:04.616Z,1.90
2023-04-28T03:31:35.175Z,2.20
2023-04-28T03:32:05.986Z,2.40
2023-04-28T03:32:36.344Z,2.30
2023-04-28T03:33:07.087Z,2.30
2023-04-28T03:33:37.415Z,2.30
2023-04-28T03:34:08.289Z,2.30
2023-04-28T03:34:39.163Z,2.30
2023-04-28T03:35:10.072Z,2.40
2023-04-28T03:35:40.968Z,2.60
2023-04-28T03:36:11.922Z,2.40
2023-04-28T03:36:42.812Z,2.80
2023-04-28T03:37:13.735Z,2.40
2023-04-28T03:37:44.675Z,2.80
2023-04-28T03:38:15.606Z,2.50
2023-04-28T03:38:46.551Z,2.60
2023-04-28T03:39:17.484Z,2.00
2023-04-28T03:39:48.386Z,2.50
2023-04-28T03:40:19.255Z,2.30
2023-04-28T03:40:50.129Z,2.20
2023-04-28T03:41:20.987Z,2.40
2023-04-28T03:41:51.877Z,2.60
2023-04-28T03:42:22.784Z,2.40
2023-04-28T03:42:53.780Z,2.00
2023-04-28T03:43:24.260Z,2.30
2023-04-28T03:43:54.811Z,2.50
2023-04-28T03:44:25.736Z,2.00
2023-04-28T03:44:56.761Z,2.40
2023-04-28T03:45:27.690Z,2.30
2023-04-28T03:45:58.917Z,2.30
2023-04-28T03:46:29.615Z,2.30
2023-04-28T03:47:00.083Z,2.20
2023-04-28T03:47:31.043Z,2.00
2023-04-28T03:48:01.913Z,2.10
2023-04-28T03:48:32.799Z,2.10
2023-04-28T03:49:03.662Z,2.10
2023-04-28T03:49:34.675Z,2.00
2023-04-28T03:50:05.134Z,1.90
2023-04-28T03:50:36.049Z,2.30
2023-04-28T03:51:07.025Z,2.20
2023-04-28T03:51:37.564Z,2.60
2023-04-28T03:52:08.002Z,2.00
2023-04-28T03:52:38.898Z,1.90
2023-04-28T03:53:09.761Z,2.20
2023-04-28T03:53:40.663Z,1.90
2023-04-28T03:54:11.571Z,2.30
2023-04-28T03:54:42.444Z,2.20
2023-04-28T03:55:13.298Z,2.30
2023-04-28T03:55:44.310Z,2.10
2023-04-28T03:56:14.683Z,2.10
2023-04-28T03:56:45.542Z,2.30
2023-04-28T03:57:16.424Z,2.10
2023-04-28T03:57:47.366Z,2.10
2023-04-28T03:58:18.323Z,2.00
2023-04-28T03:58:49.210Z,2.40
2023-04-28T03:59:20.027Z,2.10
2023-04-28T03:59:50.923Z,2.10
2023-04-28T04:00:21.796Z,2.30
2023-04-28T04:00:52.630Z,2.40
2023-04-28T04:01:23.666Z,2.30
2023-04-28T04:01:54.179Z,2.50
2023-04-28T04:02:25.326Z,2.10
2023-04-28T04:02:56.122Z,2.40
2023-04-28T04:03:27.062Z,1.90
2023-04-28T04:03:57.323Z,2.30
2023-04-28T04:04:28.554Z,2.20
2023-04-28T04:04:58.962Z,2.10
2023-04-28T04:05:29.736Z,2.20
2023-04-28T04:06:00.127Z,2.00
2023-04-28T04:06:30.949Z,2.20
2023-04-28T04:07:01.763Z,2.10
2023-04-28T04:07:32.583Z,2.60
2023-04-28T04:08:03.392Z,2.20
2023-04-28T04:08:34.207Z,2.30
2023-04-28T04:09:05.155Z,2.00
2023-04-28T04:09:36.261Z,2.00
2023-04-28T04:10:06.711Z,2.50
2023-04-28T04:10:37.869Z,2.20
2023-04-28T04:11:08.305Z,2.10
2023-04-28T04:11:39.374Z,2.30
2023-04-28T04:12:09.843Z,2.30
2023-04-28T04:12:40.698Z,2.10
2023-04-28T04:13:11.514Z,2.00
2023-04-28T04:13:42.351Z,2.00
2023-04-28T04:14:13.172Z,1.90
2023-04-28T04:14:43.985Z,2.30
2023-04-28T04:15:14.815Z,2.00
2023-04-28T04:15:45.835Z,1.90
2023-04-28T04:16:16.552Z,2.10
2023-04-28T04:16:47.431Z,2.10
2023-04-28T04:17:18.311Z,1.80
2023-04-28T04:17:49.237Z,1.90
2023-04-28T04:18:20.212Z,2.10
2023-04-28T04:18:51.036Z,1.90
2023-04-28T04:19:21.848Z,2.00
2023-04-28T04:19:52.672Z,2.00
2023-04-28T04:20:23.488Z,1.70
2023-04-28T04:20:54.351Z,1.90
2023-04-28T04:21:25.160Z,2.20
2023-04-28T04:21:56.122Z,2.40
2023-04-28T04:22:27.079Z,2.10
2023-04-28T04:22:57.964Z,1.80
2023-04-28T04:23:28.851Z,2.10
2023-04-28T04:23:59.729Z,2.10
2023-04-28T04:24:30.598Z,1.80
2023-04-28T04:25:01.432Z,2.10
2023-04-28T04:25:32.229Z,1.90
2023-04-28T04:26:03.055Z,1.80
2023-04-28T04:26:33.886Z,2.00
2023-04-28T04:27:04.725Z,2.10
2023-04-28T04:27:35.545Z,1.80
2023-04-28T04:28:06.420Z,1.80
2023-04-28T04:28:37.418Z,1.90
2023-04-28T04:29:08.387Z,2.00
2023-04-28T04:29:39.259Z,2.10
2023-04-28T04:30:10.141Z,1.80
2023-04-28T04:30:41.010Z,1.90
2023-04-28T04:31:11.885Z,2.30
2023-04-28T04:31:42.911Z,1.70
2023-04-28T04:32:13.573Z,1.90
2023-04-28T04:32:44.491Z,2.10
2023-04-28T04:33:15.393Z,1.60
2023-04-28T04:33:46.297Z,1.90
2023-04-28T04:34:17.598Z,1.90
2023-04-28T04:34:48.201Z,1.80
2023-04-28T04:35:19.090Z,1.90
2023-04-28T04:35:49.989Z,1.90
2023-04-28T04:36:20.888Z,2.10
2023-04-28T04:36:51.727Z,1.90
2023-04-28T04:37:22.557Z,1.80
2023-04-28T04:37:53.365Z,1.80
2023-04-28T04:38:24.179Z,1.90
2023-04-28T04:38:54.985Z,1.90
2023-04-28T04:39:25.820Z,2.00
2023-04-28T04:39:56.678Z,1.70
2023-04-28T04:40:27.556Z,1.90
2023-04-28T04:40:58.437Z,2.10
2023-04-28T04:41:29.352Z,1.80
2023-04-28T04:42:07.281Z,1.70
2023-04-28T04:42:32.195Z,1.70
2023-04-28T04:43:02.042Z,1.90
2023-04-28T04:43:32.881Z,2.00
2023-04-28T04:44:03.712Z,1.70
2023-04-28T04:44:34.562Z,1.90
2023-04-28T04:45:05.379Z,1.70
2023-04-28T04:45:36.207Z,1.90
2023-04-28T04:46:07.120Z,2.10
2023-04-28T04:46:38.128Z,1.90
2023-04-28T04:47:08.536Z,1.80
2023-04-28T04:47:39.477Z,2.00
2023-04-28T04:48:10.469Z,2.00
2023-04-28T04:48:40.962Z,1.90
2023-04-28T04:49:11.849Z,2.00
2023-04-28T04:49:42.673Z,1.70
2023-04-28T04:50:13.508Z,2.00
2023-04-28T04:50:44.368Z,1.70
2023-04-28T04:51:15.228Z,1.90
2023-04-28T04:51:46.031Z,1.70
2023-04-28T04:52:16.892Z,2.00
2023-04-28T04:52:47.813Z,2.00
2023-04-28T04:53:18.989Z,1.90
2023-04-28T04:53:49.425Z,2.00
2023-04-28T04:54:21.070Z,1.60
2023-04-28T04:54:51.015Z,2.00
2023-04-28T04:55:22.096Z,2.00
2023-04-28T04:55:52.455Z,1.70
2023-04-28T04:56:23.285Z,1.90
2023-04-28T04:56:54.168Z,1.70
2023-04-28T04:57:25.009Z,2.10
2023-04-28T04:57:55.852Z,1.90
2023-04-28T04:58:26.661Z,2.00
2023-04-28T04:58:57.538Z,1.80
2023-04-28T04:59:28.617Z,1.60
2023-04-28T04:59:59.101Z,1.90
2023-04-28T05:00:30.405Z,2.00
2023-04-28T05:01:00.890Z,1.60
2023-04-28T05:01:31.999Z,1.50
2023-04-28T05:02:02.389Z,1.80
2023-04-28T05:02:33.319Z,1.80
2023-04-28T05:03:03.880Z,1.90
2023-04-28T05:03:34.628Z,1.80
2023-04-28T05:04:05.320Z,1.60
2023-04-28T05:04:36.236Z,1.60
2023-04-28T05:05:19.712Z,1.50
2023-04-28T05:05:38.758Z,1.60
2023-04-28T05:06:08.168Z,1.80
2023-04-28T05:06:39.052Z,2.00
2023-04-28T05:07:09.937Z,1.90
2023-04-28T05:07:40.828Z,1.70
2023-04-28T05:08:11.707Z,1.50
2023-04-28T05:08:42.597Z,1.70
2023-04-28T05:09:13.414Z,1.70
2023-04-28T05:09:44.231Z,1.50
2023-04-28T05:10:15.089Z,1.60
2023-04-28T05:10:45.931Z,1.70
2023-04-28T05:11:16.775Z,1.70
2023-04-28T05:11:47.579Z,1.70
2023-04-28T05:12:18.465Z,1.60
2023-04-28T05:12:49.454Z,1.50
2023-04-28T05:13:20.334Z,1.60
2023-04-28T05:13:51.224Z,1.70
2023-04-28T05:14:22.083Z,1.80
2023-04-28T05:14:53.028Z,1.70
2023-04-28T05:15:23.869Z,1.70
2023-04-28T05:15:54.687Z,1.80
2023-04-28T05:16:25.571Z,1.80
2023-04-28T05:16:56.500Z,1.80
2023-04-28T05:17:27.465Z,1.60
2023-04-28T05:17:58.384Z,1.60
2023-04-28T05:18:29.279Z,1.60
2023-04-28T05:19:00.186Z,1.60
2023-04-28T05:19:31.075Z,1.60
2023-04-28T05:20:01.960Z,1.70
2023-04-28T05:20:32.881Z,1.70
2023-04-28T05:21:03.704Z,1.50
2023-04-28T05:21:34.542Z,1.50
2023-04-28T05:22:05.367Z,1.40
2023-04-28T05:22:36.217Z,1.70
2023-04-28T05:23:07.074Z,1.60
2023-04-28T05:23:37.917Z,1.50
2023-04-28T05:24:08.799Z,1.60
2023-04-28T05:24:39.922Z,1.70
2023-04-28T05:25:10.381Z,1.60
2023-04-28T05:25:41.500Z,1.90
2023-04-28T05:26:11.891Z,1.60
2023-04-28T05:26:43.053Z,1.50
2023-04-28T05:27:13.429Z,1.80
2023-04-28T05:27:45.622Z,1.80
2023-04-28T05:28:14.940Z,1.20
2023-04-28T05:28:45.786Z,1.90
2023-04-28T05:29:16.653Z,1.50
2023-04-28T05:29:47.471Z,1.50
2023-04-28T05:30:18.299Z,1.60
2023-04-28T05:30:49.553Z,1.60
2023-04-28T05:31:20.041Z,1.50
2023-04-28T05:31:50.877Z,1.70
2023-04-28T05:32:21.560Z,1.70
2023-04-28T05:32:52.329Z,1.70
2023-04-28T05:33:22.739Z,1.60
2023-04-28T05:33:53.931Z,1.60
2023-04-28T05:34:24.287Z,1.60
2023-04-28T05:34:55.108Z,1.40
2023-04-28T05:35:25.964Z,1.60
2023-04-28T05:35:56.779Z,1.40
2023-04-28T05:36:27.635Z,1.50
2023-04-28T05:36:58.501Z,1.50
2023-04-28T05:37:29.384Z,1.60
2023-04-28T05:38:00.303Z,1.80
2023-04-28T05:38:31.248Z,1.70
2023-04-28T05:39:02.183Z,1.60
2023-04-28T05:39:33.135Z,1.50
2023-04-28T05:40:04.014Z,1.70
2023-04-28T05:40:34.835Z,1.40
2023-04-28T05:41:05.734Z,1.50
2023-04-28T05:41:36.555Z,1.60
2023-04-28T05:42:07.380Z,1.50
2023-04-28T05:42:38.255Z,1.50
2023-04-28T05:43:09.279Z,1.60
2023-04-28T05:43:39.742Z,1.60
2023-04-28T05:44:10.684Z,1.60
2023-04-28T05:44:43.066Z,1.60
2023-04-28T05:45:12.162Z,1.60
2023-04-28T05:45:43.183Z,1.60
2023-04-28T05:46:28.512Z,1.70
2023-04-28T05:46:45.283Z,1.60
2023-04-28T05:47:14.676Z,1.40
2023-04-28T05:47:45.556Z,1.30
2023-04-28T05:48:16.393Z,1.60
2023-04-28T05:48:47.235Z,1.40
2023-04-28T05:49:18.122Z,1.70
2023-04-28T05:49:48.981Z,1.50
2023-04-28T05:50:19.859Z,1.50
2023-04-28T05:50:50.971Z,1.50
2023-04-28T05:51:21.437Z,1.70
2023-04-28T05:51:52.712Z,1.30
2023-04-28T05:52:23.317Z,1.50
2023-04-28T05:52:54.433Z,1.70
2023-04-28T05:53:24.783Z,1.70
2023-04-28T05:53:55.634Z,1.40
2023-04-28T05:54:26.463Z,1.40
2023-04-28T05:54:57.323Z,1.50
2023-04-28T05:55:28.138Z,1.40
2023-04-28T05:55:58.972Z,1.60
2023-04-28T05:56:29.964Z,1.50
2023-04-28T05:57:01.517Z,1.30
2023-04-28T05:57:33.938Z,1.40
2023-04-28T05:58:03.246Z,1.50
2023-04-28T05:58:32.679Z,1.70
2023-04-28T05:59:03.815Z,1.50
2023-04-28T05:59:34.815Z,1.70
2023-04-28T06:00:05.156Z,1.40
2023-04-28T06:00:35.979Z,1.30
2023-04-28T06:01:06.780Z,1.50
2023-04-28T06:01:37.626Z,1.60
2023-04-28T06:02:08.498Z,1.50
2023-04-28T06:02:39.600Z,1.50
2023-04-28T06:03:10.719Z,1.50
2023-04-28T06:03:41.217Z,1.70
2023-04-28T06:04:11.904Z,1.30
2023-04-28T06:04:42.199Z,1.40
2023-04-28T06:05:13.364Z,1.60
2023-04-28T06:05:43.995Z,1.40
2023-04-28T06:06:14.429Z,1.30
2023-04-28T06:06:44.948Z,1.50
2023-04-28T06:07:15.339Z,1.20
2023-04-28T06:07:47.308Z,1.30
2023-04-28T06:08:16.814Z,1.80
2023-04-28T06:08:47.620Z,1.30
2023-04-28T06:09:18.864Z,1.50
2023-04-28T06:09:49.332Z,1.50
2023-04-28T06:10:20.195Z,1.30
2023-04-28T06:10:51.369Z,1.30
2023-04-28T06:11:21.846Z,1.10
2023-04-28T06:11:52.500Z,1.40
2023-04-28T06:12:22.958Z,1.30
2023-04-28T06:12:53.885Z,1.60
2023-04-28T06:13:24.851Z,1.30
2023-04-28T06:13:55.689Z,2.00
2023-04-28T06:14:26.530Z,1.20
2023-04-28T06:14:57.334Z,1.10
2023-04-28T06:15:28.162Z,1.40
2023-04-28T06:15:58.993Z,1.30
2023-04-28T06:16:29.922Z,1.50
2023-04-28T06:17:00.935Z,1.30
2023-04-28T06:17:31.831Z,1.40
2023-04-28T06:18:02.785Z,1.30
2023-04-28T06:18:33.693Z,1.30
2023-04-28T06:19:04.656Z,1.50
2023-04-28T06:19:35.627Z,1.60
2023-04-28T06:20:06.478Z,1.50
2023-04-28T06:20:37.333Z,1.10
2023-04-28T06:21:08.187Z,1.30
2023-04-28T06:21:39.002Z,1.30
2023-04-28T06:22:09.832Z,1.20
2023-04-28T06:22:40.674Z,1.30
2023-04-28T06:23:11.744Z,1.30
2023-04-28T06:23:42.206Z,1.40
2023-04-28T06:24:13.394Z,1.40
2023-04-28T06:24:43.856Z,1.40
2023-04-28T06:25:14.831Z,1.40
2023-04-28T06:25:45.737Z,1.30
2023-04-28T06:26:18.062Z,1.20
2023-04-28T06:26:47.305Z,1.30
2023-04-28T06:27:18.124Z,1.30
2023-04-28T06:27:48.979Z,1.30
2023-04-28T06:28:19.790Z,1.40
2023-04-28T06:28:50.598Z,1.30
2023-04-28T06:29:21.469Z,1.40
2023-04-28T06:29:52.565Z,1.40
2023-04-28T06:30:23.017Z,1.30
2023-04-28T06:30:54.218Z,1.50
2023-04-28T06:31:24.767Z,1.30
2023-04-28T06:31:55.396Z,1.40
2023-04-28T06:32:25.923Z,1.40
2023-04-28T06:32:56.645Z,1.30
2023-04-28T06:33:27.021Z,1.40
2023-04-28T06:33:57.845Z,1.20
2023-04-28T06:34:28.678Z,1.40
2023-04-28T06:34:59.516Z,1.30
2023-04-28T06:35:30.327Z,1.20
2023-04-28T06:36:01.138Z,1.50
2023-04-28T06:36:32.076Z,1.50
2023-04-28T06:37:03.026Z,1.40
2023-04-28T06:37:33.920Z,1.30
2023-04-28T06:38:05.019Z,1.30
2023-04-28T06:38:35.659Z,1.40
2023-04-28T06:39:06.713Z,1.30
2023-04-28T06:39:36.723Z,1.40
2023-04-28T06:40:07.075Z,1.40
2023-04-28T06:40:37.905Z,1.10
2023-04-28T06:41:08.744Z,1.30
2023-04-28T06:41:39.619Z,1.20
2023-04-28T06:42:10.427Z,1.40
2023-04-28T06:42:41.286Z,1.60
2023-04-28T06:43:12.238Z,1.60
2023-04-28T06:43:43.261Z,1.30
2023-04-28T06:44:13.728Z,1.40
2023-04-28T06:44:44.734Z,1.20
2023-04-28T06:45:15.253Z,1.40
2023-04-28T06:45:45.738Z,1.20
2023-04-28T06:46:16.688Z,1.50
2023-04-28T06:46:47.126Z,1.30
2023-04-28T06:47:17.976Z,1.40
2023-04-28T06:47:48.891Z,1.30
2023-04-28T06:48:19.772Z,1.80
2023-04-28T06:48:50.881Z,1.40
2023-04-28T06:49:21.433Z,1.80
2023-04-28T06:49:52.402Z,1.40
2023-04-28T06:50:23.361Z,1.30